Terminal Aerodrome Forecast
Issued by NWS

Home | Current Version | Previous Version | Text Only | Print | Product List | Glossary On
Versions: 1 2 3 4 5 6 7 8 9 10 11 12 13 14 15 16 17
000
FTAK31 PAJN 270300 AAA
TAFAJN
TAF AMD
PAJN 270339Z 2704/2724 13015G25KT P6SM -SHRA SCT025 BKN040 OVC100
     FM270700 12012KT P6SM VCSH BKN025 OVC050
     FM271300 10007KT 6SM -RA BCFG SCT020 OVC040
     FM271800 10008KT P6SM VCSH SCT030 OVC050 WS020/14030KT=

USA.gov is the U.S. government's official web portal to all federal, state and local government web resources and services.